Time;durP1;ratioP1;P1;durP2;ratioP2;P2;SDS_P1;SDS_P2;PMS_P1;PMS_P2;Temp;Humidity;BMP_temperature;BMP_pressure;BME280_temperature;BME280_humidity;BME280_pressure;Samples;Min_cycle;Max_cycle;Signal;HPM_P1;HPM_P2
2021/07/21 00:01:34;;;;;;;;;14.67;14.67;;;;;-149.00;100.00;66333.84;5082888;27;45234;-78
2021/07/21 00:03:59;;;;;;;;;17.33;17.33;;;;;-149.00;100.00;66333.84;5101310;27;45335;-78
2021/07/21 00:06:25;;;;;;;;;17.33;17.00;;;;;-149.00;100.00;66333.84;5082465;27;45377;-78
2021/07/21 00:08:50;;;;;;;;;20.33;18.67;;;;;-149.00;100.00;66333.84;5100766;27;45273;-78
2021/07/21 00:14:03;;;;;;;;;21.00;19.00;;;;;-149.00;100.00;66333.84;5101084;27;45408;-78
2021/07/21 00:16:36;;;;;;;;;21.00;20.00;;;;;-149.00;100.00;66333.84;5101046;27;45298;-78
2021/07/21 00:20:05;;;;;;;;;20.33;18.33;;;;;-149.00;100.00;66333.84;5082372;27;47337;-78
2021/07/21 00:21:49;;;;;;;;;17.33;16.67;;;;;-149.00;100.00;66333.84;5100236;27;45241;-78
2021/07/21 00:24:14;;;;;;;;;17.33;17.00;;;;;-149.00;100.00;66333.84;5100773;27;45438;-78
2021/07/21 00:26:40;;;;;;;;;20.33;19.33;;;;;-149.00;100.00;66333.84;5100773;27;45255;-78
2021/07/21 00:29:05;;;;;;;;;16.67;15.67;;;;;-149.00;100.00;66333.84;5082298;27;47547;-78
2021/07/21 00:31:30;;;;;;;;;20.67;19.67;;;;;-149.00;100.00;66333.84;5100413;27;45434;-78
2021/07/21 00:33:56;;;;;;;;;20.33;17.67;;;;;-149.00;100.00;66333.84;5100931;27;45209;-78
2021/07/21 00:36:21;;;;;;;;;21.00;20.33;;;;;-149.00;100.00;66333.84;5100502;27;45233;-77
2021/07/21 00:38:46;;;;;;;;;20.33;19.67;;;;;-149.00;100.00;66333.84;5100432;27;46275;-78
2021/07/21 00:41:12;;;;;;;;;19.00;18.67;;;;;-149.00;100.00;66333.84;5100707;27;45313;-78
2021/07/21 00:43:37;;;;;;;;;21.00;18.33;;;;;-149.00;100.00;66333.84;5099292;27;45224;-78
2021/07/21 00:46:03;;;;;;;;;17.67;17.67;;;;;-149.00;100.00;66333.84;5100576;27;45286;-78
2021/07/21 00:48:28;;;;;;;;;20.33;19.33;;;;;-149.00;100.00;66333.84;5100503;27;45428;-78
2021/07/21 00:50:54;;;;;;;;;17.00;17.00;;;;;-149.00;100.00;66333.84;5082091;27;45264;-78
2021/07/21 00:53:20;;;;;;;;;21.67;21.00;;;;;-149.00;100.00;66333.84;5100336;27;45232;-78
2021/07/21 00:55:46;;;;;;;;;20.67;20.33;;;;;-149.00;100.00;66333.84;5098905;27;47125;-78
2021/07/21 00:58:13;;;;;;;;;23.67;22.00;;;;;-149.00;100.00;66333.84;5100351;27;46200;-78
2021/07/21 01:00:39;;;;;;;;;22.00;18.00;;;;;-149.00;100.00;66333.84;5100399;27;45224;-78
2021/07/21 01:03:05;;;;;;;;;22.00;22.00;;;;;-149.00;100.00;66333.84;5100357;27;45334;-78
2021/07/21 01:05:33;;;;;;;;;19.67;19.33;;;;;-149.00;100.00;66333.84;5100190;27;46181;-78
2021/07/21 01:08:00;;;;;;;;;19.33;17.67;;;;;-149.00;100.00;66333.84;5100033;27;46077;-78
2021/07/21 01:10:27;;;;;;;;;21.67;21.67;;;;;-149.00;100.00;66333.84;5100119;27;45318;-77
2021/07/21 01:13:10;;;;;;;;;16.67;16.33;;;;;-149.00;100.00;66333.84;5098895;27;45306;-78
2021/07/21 01:15:48;;;;;;;;;23.33;21.33;;;;;-149.00;100.00;66333.84;5100162;27;45306;-78
2021/07/21 01:18:23;;;;;;;;;22.67;18.67;;;;;-149.00;100.00;66333.84;5081641;27;48310;-78
2021/07/21 01:21:15;;;;;;;;;25.33;24.00;;;;;-149.00;100.00;66333.84;5081683;27;45313;-78
2021/07/21 01:24:04;;;;;;;;;22.33;22.00;;;;;-149.00;100.00;66333.84;5099837;27;45341;-78
2021/07/21 01:26:48;;;;;;;;;21.33;21.33;;;;;-149.00;100.00;66333.84;5098783;27;47187;-78
2021/07/21 01:29:17;;;;;;;;;19.33;18.67;;;;;-149.00;100.00;66333.84;5098346;27;48158;-78
2021/07/21 01:31:45;;;;;;;;;22.00;20.33;;;;;-149.00;100.00;66333.84;5099754;27;45263;-78
2021/07/21 01:34:13;;;;;;;;;20.00;20.00;;;;;-149.00;100.00;66333.84;5099819;27;45261;-78
2021/07/21 01:36:50;;;;;;;;;21.33;20.00;;;;;-149.00;100.00;66333.84;5099639;27;45199;-78
2021/07/21 01:39:20;;;;;;;;;19.33;18.00;;;;;-149.00;100.00;66333.84;5099516;27;45660;-77
2021/07/21 01:41:53;;;;;;;;;18.33;18.00;;;;;-149.00;100.00;66333.84;5081241;27;45319;-78
2021/07/21 01:44:23;;;;;;;;;21.33;19.67;;;;;-149.00;100.00;66333.84;5099890;27;45400;-78
2021/07/21 01:46:55;;;;;;;;;18.33;17.00;;;;;-149.00;100.00;66333.84;5099773;27;45299;-77
2021/07/21 01:49:24;;;;;;;;;24.67;21.00;;;;;-149.00;100.00;66333.84;5099578;27;45350;-78
2021/07/21 01:51:50;;;;;;;;;19.33;18.67;;;;;-149.00;100.00;66333.84;5098235;27;45862;-78
2021/07/21 01:54:17;;;;;;;;;21.33;18.00;;;;;-149.00;100.00;66333.84;5099672;27;45242;-78
2021/07/21 01:56:44;;;;;;;;;24.67;19.33;;;;;-149.00;100.00;66333.84;5099662;27;45398;-78
2021/07/21 01:59:11;;;;;;;;;20.67;20.33;;;;;-149.00;100.00;66333.84;5099522;27;45367;-78
2021/07/21 02:01:38;;;;;;;;;16.00;15.00;;;;;-149.00;100.00;66333.84;5099501;27;45309;-78
2021/07/21 02:04:05;;;;;;;;;23.00;22.00;;;;;-149.00;100.00;66333.84;5081203;27;45275;-78
2021/07/21 02:06:32;;;;;;;;;20.67;17.67;;;;;-149.00;100.00;66333.84;5084229;27;46101;-77
2021/07/21 02:08:59;;;;;;;;;20.67;19.33;;;;;-149.00;100.00;66333.84;5102779;27;45309;-77
2021/07/21 02:11:25;;;;;;;;;20.67;19.67;;;;;-149.00;100.00;66333.84;5102879;27;45324;-78
2021/07/21 02:13:55;;;;;;;;;19.00;19.00;;;;;-149.00;100.00;66333.84;5102897;27;45319;-78
2021/07/21 02:16:20;;;;;;;;;22.00;20.67;;;;;-149.00;100.00;66333.84;5102906;27;45223;-78
2021/07/21 02:18:47;;;;;;;;;19.33;18.33;;;;;-149.00;100.00;66333.84;5102718;27;45277;-78
2021/07/21 02:21:13;;;;;;;;;23.33;22.67;;;;;-149.00;100.00;66333.84;5102844;27;45231;-77
2021/07/21 02:23:39;;;;;;;;;18.67;17.00;;;;;-149.00;100.00;66333.84;5102481;27;45330;-77
2021/07/21 02:26:06;;;;;;;;;23.33;23.33;;;;;-149.00;100.00;66333.84;5084062;27;47312;-77
2021/07/21 02:28:31;;;;;;;;;21.00;19.33;;;;;-149.00;100.00;66333.84;5102863;27;45348;-77
2021/07/21 02:31:01;;;;;;;;;19.00;19.00;;;;;-149.00;100.00;66333.84;5102288;27;45315;-78
2021/07/21 02:33:32;;;;;;;;;24.00;22.00;;;;;-149.00;100.00;66333.84;5103064;27;45231;-77
2021/07/21 02:35:58;;;;;;;;;18.67;18.67;;;;;-149.00;100.00;66333.84;5102074;27;45487;-78
2021/07/21 02:38:23;;;;;;;;;25.67;22.33;;;;;-149.00;100.00;66333.84;5102270;27;45268;-78
2021/07/21 02:40:49;;;;;;;;;18.67;17.33;;;;;-149.00;100.00;66333.84;5102596;27;45196;-77
2021/07/21 02:43:15;;;;;;;;;19.67;18.00;;;;;-149.00;100.00;66333.84;5102833;27;45226;-77
2021/07/21 02:45:40;;;;;;;;;20.00;19.00;;;;;-149.00;100.00;66333.84;5101189;27;46178;-77
2021/07/21 02:48:06;;;;;;;;;18.33;17.67;;;;;-149.00;100.00;66333.84;5102420;27;45180;-77
2021/07/21 02:50:32;;;;;;;;;16.67;16.00;;;;;-149.00;100.00;66333.84;5102425;27;45202;-77
2021/07/21 02:53:02;;;;;;;;;20.00;18.67;;;;;-149.00;100.00;66333.84;5102236;27;45417;-77
2021/07/21 02:55:38;;;;;;;;;21.67;19.67;;;;;-149.00;100.00;66333.84;5102167;27;45355;-78
2021/07/21 02:58:12;;;;;;;;;19.00;18.33;;;;;-149.00;100.00;66333.84;5102367;27;45325;-77
2021/07/21 03:00:38;;;;;;;;;20.33;20.33;;;;;-149.00;100.00;66333.84;5102489;27;45386;-77
2021/07/21 03:03:10;;;;;;;;;18.00;17.67;;;;;-149.00;100.00;66333.84;5102372;27;45207;-77
2021/07/21 03:05:36;;;;;;;;;20.33;19.33;;;;;-149.00;100.00;66333.84;5100601;27;46147;-77
2021/07/21 03:08:03;;;;;;;;;19.00;17.33;;;;;-149.00;100.00;66333.84;5083489;27;45356;-77
2021/07/21 03:10:30;;;;;;;;;19.67;17.33;;;;;-149.00;100.00;66333.84;5100610;27;45347;-77
2021/07/21 03:13:01;;;;;;;;;21.00;19.33;;;;;-149.00;100.00;66333.84;5102158;27;45258;-77
2021/07/21 03:15:30;;;;;;;;;20.33;19.00;;;;;-149.00;100.00;66333.84;5101906;27;45322;-77
2021/07/21 03:17:56;;;;;;;;;23.00;20.00;;;;;-149.00;100.00;66333.84;5100877;27;45262;-77
2021/07/21 03:20:23;;;;;;;;;19.00;18.67;;;;;-149.00;100.00;66333.84;5101904;27;45237;-77
2021/07/21 03:22:51;;;;;;;;;21.67;19.33;;;;;-149.00;100.00;66333.84;5101723;27;45290;-78
2021/07/21 03:25:17;;;;;;;;;19.33;19.33;;;;;-149.00;100.00;66333.84;5101612;27;45398;-77
2021/07/21 03:27:44;;;;;;;;;20.67;18.33;;;;;-149.00;100.00;66333.84;5101638;27;46289;-77
2021/07/21 03:30:11;;;;;;;;;23.00;22.33;;;;;-149.00;100.00;66333.84;5101449;27;45298;-78
2021/07/21 03:32:39;;;;;;;;;20.67;20.67;;;;;-149.00;100.00;66333.84;5101266;27;45175;-77
2021/07/21 03:35:07;;;;;;;;;22.00;21.00;;;;;-149.00;100.00;66333.84;5101126;27;45415;-77
2021/07/21 03:37:34;;;;;;;;;18.00;16.33;;;;;-149.00;100.00;66333.84;5101365;27;45343;-77
2021/07/21 03:40:03;;;;;;;;;18.67;18.00;;;;;-149.00;100.00;66333.84;5101367;27;45276;-78
2021/07/21 03:42:29;;;;;;;;;22.00;19.00;;;;;-149.00;100.00;66333.84;5083267;27;45213;-77
2021/07/21 03:44:59;;;;;;;;;22.00;17.33;;;;;-149.00;100.00;66333.84;5083050;27;46347;-77
2021/07/21 03:47:26;;;;;;;;;24.00;24.00;;;;;-149.00;100.00;66333.84;5101504;27;45173;-77
2021/07/21 03:49:52;;;;;;;;;19.67;19.67;;;;;-149.00;100.00;66333.84;5101296;27;45359;-77
2021/07/21 03:52:19;;;;;;;;;21.33;20.00;;;;;-149.00;100.00;66333.84;5082922;27;45373;-77
2021/07/21 03:54:46;;;;;;;;;24.00;21.00;;;;;-149.00;100.00;66333.84;5101092;27;45358;-77
2021/07/21 03:57:13;;;;;;;;;20.00;18.67;;;;;-149.00;100.00;66333.84;5100992;27;46620;-77
2021/07/21 03:59:39;;;;;;;;;24.33;22.00;;;;;-149.00;100.00;66333.84;5101212;27;45229;-77
2021/07/21 04:02:09;;;;;;;;;18.67;18.00;;;;;-149.00;100.00;66333.84;5101317;27;45230;-77
2021/07/21 04:04:38;;;;;;;;;24.33;20.33;;;;;-149.00;100.00;66333.84;5082843;27;47491;-77
2021/07/21 04:07:06;;;;;;;;;18.33;18.33;;;;;-149.00;100.00;66333.84;5082477;27;47923;-77
2021/07/21 04:09:34;;;;;;;;;20.00;19.00;;;;;-149.00;100.00;66333.84;5100815;27;45250;-78
2021/07/21 04:12:00;;;;;;;;;23.00;20.00;;;;;-149.00;100.00;66333.84;5101228;27;45301;-77
2021/07/21 04:14:27;;;;;;;;;21.00;19.00;;;;;-149.00;100.00;66333.84;5101021;27;45475;-77
2021/07/21 04:16:54;;;;;;;;;23.00;18.33;;;;;-149.00;100.00;66333.84;5100934;27;46695;-77
2021/07/21 04:19:22;;;;;;;;;21.00;18.67;;;;;-149.00;100.00;66333.84;5100910;27;45227;-77
2021/07/21 04:21:49;;;;;;;;;23.00;22.00;;;;;-149.00;100.00;66333.84;5100842;27;45275;-77
2021/07/21 04:24:16;;;;;;;;;21.00;19.33;;;;;-149.00;100.00;66333.84;5100620;27;45235;-77
2021/07/21 04:26:43;;;;;;;;;22.00;20.00;;;;;-149.00;100.00;66333.84;5100771;27;45403;-77
2021/07/21 04:29:16;;;;;;;;;18.00;17.67;;;;;-149.00;100.00;66333.84;5100414;27;45287;-77
2021/07/21 04:31:47;;;;;;;;;19.67;19.67;;;;;-149.00;100.00;66333.84;5100875;27;45353;-77
2021/07/21 04:34:14;;;;;;;;;22.33;21.33;;;;;-149.00;100.00;66333.84;5099172;27;46274;-77
2021/07/21 04:36:41;;;;;;;;;20.67;19.33;;;;;-149.00;100.00;66333.84;5100399;27;45382;-77
2021/07/21 04:39:07;;;;;;;;;19.00;19.00;;;;;-149.00;100.00;66333.84;5082041;27;45362;-77
2021/07/21 04:41:33;;;;;;;;;21.67;20.67;;;;;-149.00;100.00;66333.84;5100680;27;45313;-77
2021/07/21 04:44:01;;;;;;;;;20.67;19.33;;;;;-149.00;100.00;66333.84;5100743;27;45373;-77
2021/07/21 04:46:27;;;;;;;;;20.00;19.67;;;;;-149.00;100.00;66333.84;5100552;27;46078;-77
2021/07/21 04:48:53;;;;;;;;;22.33;21.67;;;;;-149.00;100.00;66333.84;5100661;27;45347;-77
2021/07/21 04:51:22;;;;;;;;;21.67;19.00;;;;;-149.00;100.00;66333.84;5100712;27;45328;-77
2021/07/21 04:53:52;;;;;;;;;22.67;22.67;;;;;-149.00;100.00;66333.84;5100035;27;46134;-77
2021/07/21 04:56:18;;;;;;;;;21.33;21.33;;;;;-149.00;100.00;66333.84;5100572;27;45289;-77
2021/07/21 04:58:43;;;;;;;;;29.00;22.33;;;;;-149.00;100.00;66333.84;5100567;27;45259;-77
2021/07/21 05:01:11;;;;;;;;;20.67;20.67;;;;;-149.00;100.00;66333.84;5100827;27;45322;-77
2021/07/21 05:03:37;;;;;;;;;19.33;18.67;;;;;-149.00;100.00;66333.84;5100527;27;45273;-77
2021/07/21 05:06:02;;;;;;;;;21.67;19.67;;;;;-149.00;100.00;66333.84;5098955;27;47771;-77
2021/07/21 05:08:27;;;;;;;;;23.00;22.00;;;;;-149.00;100.00;66333.84;5100122;27;45327;-77
2021/07/21 05:10:53;;;;;;;;;18.00;17.33;;;;;-149.00;100.00;66333.84;5100380;27;45353;-77
2021/07/21 05:13:19;;;;;;;;;22.67;21.33;;;;;-149.00;100.00;66333.84;5098962;27;45980;-77
2021/07/21 05:15:47;;;;;;;;;20.00;19.67;;;;;-149.00;100.00;66333.84;5100365;27;45339;-77
2021/07/21 05:18:12;;;;;;;;;19.00;17.33;;;;;-149.00;100.00;66333.84;5100353;27;45216;-77
2021/07/21 05:20:37;;;;;;;;;24.33;22.67;;;;;-149.00;100.00;66333.84;5100482;27;45544;-77
2021/07/21 05:23:04;;;;;;;;;22.00;21.67;;;;;-149.00;100.00;66333.84;5081422;27;47286;-77
2021/07/21 05:25:29;;;;;;;;;25.00;23.00;;;;;-149.00;100.00;66333.84;5100024;27;46145;-77
2021/07/21 05:27:55;;;;;;;;;22.00;22.00;;;;;-149.00;100.00;66333.84;5099956;27;45252;-77
2021/07/21 05:30:21;;;;;;;;;23.00;22.00;;;;;-149.00;100.00;66333.84;5099943;27;45358;-77
2021/07/21 05:32:47;;;;;;;;;23.33;22.00;;;;;-149.00;100.00;66333.84;5081507;27;45937;-77
2021/07/21 05:35:13;;;;;;;;;27.00;25.33;;;;;-149.00;100.00;66333.84;5099657;27;45336;-77
2021/07/21 05:37:39;;;;;;;;;23.33;21.33;;;;;-149.00;100.00;66333.84;5081442;27;45266;-77
2021/07/21 05:40:05;;;;;;;;;26.00;23.67;;;;;-149.00;100.00;66333.84;5100919;27;45232;-77
2021/07/21 05:42:30;;;;;;;;;25.67;24.33;;;;;-149.00;100.00;66333.84;5103573;27;45152;-78
2021/07/21 05:44:56;;;;;;;;;23.33;23.33;;;;;-149.00;100.00;66333.84;5103503;27;45377;-78
2021/07/21 05:47:21;;;;;;;;;23.33;22.33;;;;;-149.00;100.00;66333.84;5103507;27;45208;-77
2021/07/21 05:49:47;;;;;;;;;24.33;24.33;;;;;-149.00;100.00;66333.84;5103525;27;45216;-77
2021/07/21 05:52:12;;;;;;;;;26.00;25.00;;;;;-149.00;100.00;66333.84;5103166;27;45549;-78
2021/07/21 05:54:39;;;;;;;;;22.67;22.67;;;;;-149.00;100.00;66333.84;5103180;27;45412;-78
2021/07/21 05:57:05;;;;;;;;;26.00;23.67;;;;;-149.00;100.00;66333.84;5103255;27;45262;-78
2021/07/21 05:59:30;;;;;;;;;25.67;23.67;;;;;-149.00;100.00;66333.84;5103278;27;45372;-77
2021/07/21 06:01:56;;;;;;;;;24.67;23.00;;;;;-149.00;100.00;66333.84;5103067;27;45491;-78
2021/07/21 06:04:21;;;;;;;;;27.33;26.33;;;;;-149.00;100.00;66333.84;5103116;27;46275;-78
2021/07/21 06:06:48;;;;;;;;;21.00;21.00;;;;;-149.00;100.00;66333.84;5103018;27;45308;-78
2021/07/21 06:09:13;;;;;;;;;28.00;24.67;;;;;-149.00;100.00;66333.84;5102970;27;45310;-78
2021/07/21 06:11:39;;;;;;;;;26.67;25.67;;;;;-149.00;100.00;66333.84;5102763;27;45277;-78
2021/07/21 06:14:05;;;;;;;;;27.33;27.00;;;;;-149.00;100.00;66333.84;5102975;27;45365;-78
2021/07/21 06:16:30;;;;;;;;;29.00;26.00;;;;;-149.00;100.00;66333.84;5103034;27;45302;-78
2021/07/21 06:18:57;;;;;;;;;26.67;26.00;;;;;-149.00;100.00;66333.84;5102973;27;45209;-78
2021/07/21 06:21:22;;;;;;;;;28.67;27.33;;;;;-149.00;100.00;66333.84;5102878;27;45522;-78
2021/07/21 06:23:48;;;;;;;;;27.00;24.67;;;;;-149.00;100.00;66333.84;5083610;27;48624;-78
2021/07/21 06:26:13;;;;;;;;;31.00;28.00;;;;;-149.00;100.00;66333.84;5102910;27;45287;-78
2021/07/21 06:28:39;;;;;;;;;27.67;27.00;;;;;-149.00;100.00;66333.84;5102862;27;45468;-78
2021/07/21 06:31:04;;;;;;;;;25.00;22.67;;;;;-149.00;100.00;66333.84;5102304;27;45342;-78
2021/07/21 06:33:30;;;;;;;;;27.33;24.67;;;;;-149.00;100.00;66333.84;5084321;27;47249;-78
2021/07/21 06:35:55;;;;;;;;;33.00;28.33;;;;;-149.00;100.00;66333.84;5102269;27;45357;-78
2021/07/21 06:38:20;;;;;;;;;24.33;24.33;;;;;-149.00;100.00;66333.84;5084126;27;45444;-77
2021/07/21 06:40:47;;;;;;;;;28.67;26.33;;;;;-149.00;100.00;66333.84;5102488;27;45457;-78
2021/07/21 06:43:13;;;;;;;;;33.67;30.00;;;;;-149.00;100.00;66333.84;5102424;27;47153;-78
2021/07/21 06:45:38;;;;;;;;;27.00;25.33;;;;;-149.00;100.00;66333.84;5102282;27;45363;-78
2021/07/21 06:48:04;;;;;;;;;32.00;30.33;;;;;-149.00;100.00;66333.84;5102585;27;45367;-78
2021/07/21 06:50:30;;;;;;;;;27.33;24.33;;;;;-149.00;100.00;66333.84;5102208;27;45505;-78
2021/07/21 06:52:55;;;;;;;;;30.00;25.67;;;;;-149.00;100.00;66333.84;5102129;27;45284;-78
2021/07/21 06:55:20;;;;;;;;;27.00;26.00;;;;;-149.00;100.00;66333.84;5102292;27;45265;-78
2021/07/21 06:57:46;;;;;;;;;26.00;25.00;;;;;-149.00;100.00;66333.84;5102534;27;45313;-78
2021/07/21 07:00:12;;;;;;;;;31.00;28.00;;;;;-149.00;100.00;66333.84;5102250;27;45244;-78
2021/07/21 07:02:37;;;;;;;;;31.33;29.67;;;;;-149.00;100.00;66333.84;5100740;27;48436;-78
2021/07/21 07:05:03;;;;;;;;;31.00;29.33;;;;;-149.00;100.00;66333.84;5102257;27;45250;-78
2021/07/21 07:07:29;;;;;;;;;29.33;27.67;;;;;-149.00;100.00;66333.84;5102266;27;45365;-78
2021/07/21 07:09:54;;;;;;;;;26.00;24.00;;;;;-149.00;100.00;66333.84;5100248;27;47323;-78
2021/07/21 07:12:20;;;;;;;;;33.00;30.33;;;;;-149.00;100.00;66333.84;5102043;27;46114;-78
2021/07/21 07:14:46;;;;;;;;;29.67;28.00;;;;;-149.00;100.00;66333.84;5102055;27;45257;-78
2021/07/21 07:17:11;;;;;;;;;26.67;24.67;;;;;-149.00;100.00;66333.84;5083639;27;45350;-78
2021/07/21 07:19:36;;;;;;;;;27.33;26.67;;;;;-149.00;100.00;66333.84;5102004;27;45432;-78
2021/07/21 07:22:03;;;;;;;;;30.33;29.00;;;;;-149.00;100.00;66333.84;5101650;27;46378;-78
2021/07/21 07:24:29;;;;;;;;;29.67;28.00;;;;;-149.00;100.00;66333.84;5101697;27;45339;-78
2021/07/21 07:27:02;;;;;;;;;27.33;27.00;;;;;-149.00;100.00;66333.84;5100651;27;45306;-78
2021/07/21 07:29:28;;;;;;;;;29.33;28.33;;;;;-149.00;100.00;66333.84;5101377;27;45840;-78
2021/07/21 07:31:53;;;;;;;;;27.67;26.33;;;;;-149.00;100.00;66333.84;5101617;27;46270;-77
2021/07/21 07:34:19;;;;;;;;;29.67;27.00;;;;;-149.00;100.00;66333.84;5101837;27;45336;-78
2021/07/21 07:36:45;;;;;;;;;30.00;29.00;;;;;-149.00;100.00;66333.84;5083312;27;45325;-78
2021/07/21 07:39:11;;;;;;;;;32.33;29.67;;;;;-149.00;100.00;66333.84;5082919;27;45508;-78
2021/07/21 07:41:39;;;;;;;;;31.67;29.33;;;;;-149.00;100.00;66333.84;5101754;27;45309;-78
2021/07/21 07:44:06;;;;;;;;;33.00;29.33;;;;;-149.00;100.00;66333.84;5101599;27;45383;-78
2021/07/21 07:46:32;;;;;;;;;31.00;29.00;;;;;-149.00;100.00;66333.84;5101537;27;45306;-78
2021/07/21 07:48:58;;;;;;;;;34.33;31.00;;;;;-149.00;100.00;66333.84;5101202;27;45324;-78
2021/07/21 07:51:24;;;;;;;;;29.33;26.33;;;;;-149.00;100.00;66333.84;5101108;27;45417;-78
2021/07/21 07:53:50;;;;;;;;;34.33;30.33;;;;;-149.00;100.00;66333.84;5101260;27;45276;-78
2021/07/21 07:56:16;;;;;;;;;31.00;28.00;;;;;-149.00;100.00;66333.84;5101467;27;45232;-78
2021/07/21 07:58:42;;;;;;;;;29.33;27.33;;;;;-149.00;100.00;66333.84;5101114;27;45311;-78
2021/07/21 08:01:07;;;;;;;;;32.00;29.67;;;;;-149.00;100.00;66333.84;5101565;27;45268;-78
2021/07/21 08:03:33;;;;;;;;;32.67;30.67;;;;;-149.00;100.00;66333.84;5106248;27;45296;-75
2021/07/21 08:05:59;;;;;;;;;28.33;28.00;;;;;-149.00;100.00;66333.84;5101955;27;45211;-78
2021/07/21 08:08:26;;;;;;;;;29.67;29.00;;;;;-149.00;100.00;66333.84;5100860;27;46029;-78
2021/07/21 08:10:51;;;;;;;;;33.00;30.33;;;;;-149.00;100.00;66333.84;5100903;27;45397;-78
2021/07/21 08:13:19;;;;;;;;;32.67;29.00;;;;;-149.00;100.00;66333.84;5100928;27;45277;-78
2021/07/21 08:15:45;;;;;;;;;30.67;28.67;;;;;-149.00;100.00;66333.84;5082749;27;45299;-78
2021/07/21 08:18:12;;;;;;;;;29.67;27.33;;;;;-149.00;100.00;66333.84;5105163;27;45316;-79
2021/07/21 08:20:38;;;;;;;;;30.67;29.67;;;;;-149.00;100.00;66333.84;5101213;27;46057;-79
2021/07/21 08:23:03;;;;;;;;;31.33;28.00;;;;;-149.00;100.00;66333.84;5103657;27;45208;-79
2021/07/21 08:25:28;;;;;;;;;31.33;27.67;;;;;-149.00;100.00;66333.84;5104249;27;45278;-78
2021/07/21 08:27:54;;;;;;;;;32.33;28.67;;;;;-149.00;100.00;66333.84;5082393;27;47248;-78
2021/07/21 08:30:20;;;;;;;;;34.67;31.67;;;;;-149.00;100.00;66333.84;5095487;27;45328;-78
2021/07/21 08:32:48;;;;;;;;;33.33;30.33;;;;;-149.00;100.00;66333.84;5083254;28;45315;-78
2021/07/21 08:35:16;;;;;;;;;29.67;29.00;;;;;-149.00;100.00;66333.84;5080696;28;45349;-79
2021/07/21 08:37:42;;;;;;;;;30.33;28.33;;;;;-149.00;100.00;66333.84;5082341;28;45235;-79
2021/07/21 08:40:09;;;;;;;;;34.67;31.33;;;;;-149.00;100.00;66333.84;5080033;28;45279;-78
2021/07/21 08:42:35;;;;;;;;;32.67;29.33;;;;;-149.00;100.00;66333.84;5080210;28;45385;-79
2021/07/21 08:45:01;;;;;;;;;33.00;28.33;;;;;-149.00;100.00;66333.84;5080328;28;45340;-78
2021/07/21 08:47:26;;;;;;;;;27.33;25.67;;;;;-149.00;100.00;66333.84;5081934;28;45372;-79
2021/07/21 08:49:52;;;;;;;;;28.67;28.00;;;;;-149.00;100.00;66333.84;5065152;28;47182;-77
2021/07/21 08:52:17;;;;;;;;;29.67;26.67;;;;;-149.00;100.00;66333.84;5081404;28;45281;-78
2021/07/21 08:54:48;;;;;;;;;25.67;25.00;;;;;-149.00;100.00;66333.84;5081674;28;45463;-78
2021/07/21 08:57:16;;;;;;;;;25.00;25.00;;;;;-149.00;100.00;66333.84;5080210;28;45565;-78
2021/07/21 08:59:42;;;;;;;;;27.33;27.00;;;;;-149.00;100.00;66333.84;5080019;28;46237;-78
2021/07/21 09:02:10;;;;;;;;;30.67;27.00;;;;;-149.00;100.00;66333.84;5081972;28;45324;-79
2021/07/21 09:04:36;;;;;;;;;26.67;24.00;;;;;-149.00;100.00;66333.84;5062556;28;45217;-78
2021/07/21 09:07:01;;;;;;;;;29.00;28.00;;;;;-149.00;100.00;66333.84;5082162;28;45406;-78
2021/07/21 09:09:26;;;;;;;;;27.67;27.67;;;;;-149.00;100.00;66333.84;5083028;28;46117;-78
2021/07/21 09:11:53;;;;;;;;;24.33;23.33;;;;;-149.00;100.00;66333.84;5088847;28;45188;-78
2021/07/21 09:14:18;;;;;;;;;24.33;24.33;;;;;-149.00;100.00;66333.84;5088988;28;45181;-79
2021/07/21 09:16:43;;;;;;;;;26.33;24.00;;;;;-149.00;100.00;66333.84;5088290;28;45284;-79
2021/07/21 09:19:11;;;;;;;;;28.33;25.00;;;;;-149.00;100.00;66333.84;5087938;28;46905;-78
2021/07/21 09:21:37;;;;;;;;;22.00;20.67;;;;;-149.00;100.00;66333.84;5087895;27;45405;-79
2021/07/21 09:24:02;;;;;;;;;23.00;22.00;;;;;-149.00;100.00;66333.84;5104782;27;45318;-79
2021/07/21 09:26:34;;;;;;;;;20.67;20.33;;;;;-149.00;100.00;66333.84;5088493;27;46868;-78
2021/07/21 09:29:01;;;;;;;;;20.00;18.67;;;;;-149.00;100.00;66333.84;5104194;27;46349;-78
2021/07/21 09:31:32;;;;;;;;;25.67;23.00;;;;;-149.00;100.00;66333.84;5105830;27;45380;-78
2021/07/21 09:33:58;;;;;;;;;21.00;21.00;;;;;-149.00;100.00;66333.84;5086250;27;45312;-78
2021/07/21 09:36:24;;;;;;;;;23.00;22.67;;;;;-149.00;100.00;66333.84;5104548;27;45383;-79
2021/07/21 09:38:58;;;;;;;;;24.67;24.00;;;;;-149.00;100.00;66333.84;5105192;27;45366;-78
2021/07/21 09:41:24;;;;;;;;;23.33;22.00;;;;;-149.00;100.00;66333.84;5093407;27;45363;-80
2021/07/21 09:43:57;;;;;;;;;25.33;24.67;;;;;-149.00;100.00;66333.84;5114307;27;45320;-78
2021/07/21 09:46:23;;;;;;;;;25.67;24.00;;;;;-149.00;100.00;66333.84;5108749;27;45299;-78
2021/07/21 09:48:49;;;;;;;;;23.33;22.33;;;;;-149.00;100.00;66333.84;5106617;27;46411;-78
2021/07/21 09:51:36;;;;;;;;;28.67;26.00;;;;;-149.00;100.00;66333.84;5109150;27;45451;-78
2021/07/21 09:54:16;;;;;;;;;20.33;19.33;;;;;-149.00;100.00;66333.84;5110164;27;45251;-78
2021/07/21 09:56:43;;;;;;;;;23.67;23.00;;;;;-149.00;100.00;66333.84;5111609;27;45204;-78
2021/07/21 09:59:28;;;;;;;;;27.00;25.00;;;;;-149.00;100.00;66333.84;5106594;27;46163;-78
2021/07/21 10:01:54;;;;;;;;;25.67;22.00;;;;;-149.00;100.00;66333.84;5103312;27;45325;-78
2021/07/21 10:04:34;;;;;;;;;23.67;22.33;;;;;-149.00;100.00;66333.84;5104248;27;45586;-78
2021/07/21 10:07:04;;;;;;;;;27.00;23.00;;;;;-149.00;100.00;66333.84;5104472;27;45247;-78
2021/07/21 10:09:29;;;;;;;;;23.67;22.67;;;;;-149.00;100.00;66333.84;5109557;27;45397;-78
2021/07/21 10:11:56;;;;;;;;;24.33;23.33;;;;;-149.00;100.00;66333.84;5104867;27;45586;-78
2021/07/21 10:14:21;;;;;;;;;20.33;19.00;;;;;-149.00;100.00;66333.84;5106021;27;45330;-78
2021/07/21 10:16:49;;;;;;;;;20.67;20.67;;;;;-149.00;100.00;66333.84;5087040;27;47464;-79
2021/07/21 10:19:21;;;;;;;;;15.67;14.33;;;;;-149.00;100.00;66333.84;5115379;27;46283;-78
2021/07/21 10:21:53;;;;;;;;;23.33;21.67;;;;;-149.00;100.00;66333.84;5093412;27;45460;-78
2021/07/21 10:24:20;;;;;;;;;21.00;21.00;;;;;-149.00;100.00;66333.84;5087090;27;45263;-78
2021/07/21 10:26:46;;;;;;;;;23.00;21.33;;;;;-149.00;100.00;66333.84;5109710;27;45271;-78
2021/07/21 10:29:12;;;;;;;;;21.00;21.00;;;;;-149.00;100.00;66333.84;5109903;27;47079;-78
2021/07/21 10:31:39;;;;;;;;;24.33;21.67;;;;;-149.00;100.00;66333.84;5095382;27;45279;-79
2021/07/21 10:34:04;;;;;;;;;22.00;20.67;;;;;-149.00;100.00;66333.84;5111651;27;45234;-78
2021/07/21 10:36:31;;;;;;;;;22.00;20.00;;;;;-149.00;100.00;66333.84;5089000;27;45969;-79
2021/07/21 10:39:00;;;;;;;;;20.33;17.67;;;;;-149.00;100.00;66333.84;5103949;27;45359;-78
2021/07/21 10:41:29;;;;;;;;;22.33;22.33;;;;;-149.00;100.00;66333.84;5108777;27;45249;-78
2021/07/21 10:43:57;;;;;;;;;20.67;19.67;;;;;-149.00;100.00;66333.84;5106294;27;45244;-78
2021/07/21 10:46:33;;;;;;;;;19.67;16.00;;;;;-149.00;100.00;66333.84;5109045;27;45438;-79
2021/07/21 10:49:29;;;;;;;;;22.00;19.33;;;;;-149.00;100.00;66333.84;5103337;27;48210;-79
2021/07/21 11:00:16;;;;;;;;;17.00;17.00;;;;;-149.00;100.00;66333.84;5109552;27;45258;-79
2021/07/21 11:02:43;;;;;;;;;22.33;21.00;;;;;-149.00;100.00;66333.84;5105129;27;45211;-78
2021/07/21 11:05:33;;;;;;;;;18.00;17.33;;;;;-149.00;100.00;66333.84;5103272;27;45525;-80
2021/07/21 11:08:01;;;;;;;;;17.67;17.67;;;;;-149.00;100.00;66333.84;5106253;27;45292;-77